Terminal Aerodrome Forecast
Issued by NWS Mt. Holly, NJ

Home | Current Version | Previous Version | Text Only | Print | Product List | Glossary On
Versions: 1 2 3 4 5 6 7 8 9 10 11 12 13 14 15 16 17 18 19 20 21 22 23 24 25 26 27 28 29 30 31 32 33 34
000
FTUS41 KPHI 241955 AAA
TAFABE
TAF AMD
KABE 241955Z 2420/2518 08006KT P6SM -RA OVC080
     FM242200 08007KT P6SM OVC050
     FM250300 07007KT P6SM -RA OVC050
     FM250500 07013KT 5SM -RA OVC015
     FM251300 07015G22KT 4SM -RA OVC007
     FM251700 07013KT 2SM -RA BR OVC003=

USA.gov is the U.S. government's official web portal to all federal, state and local government web resources and services.